Time;durP1;ratioP1;P1;durP2;ratioP2;P2;SDS_P1;SDS_P2;PMS_P1;PMS_P2;Temp;Humidity;BMP_temperature;BMP_pressure;BME280_temperature;BME280_humidity;BME280_pressure;Samples;Min_cycle;Max_cycle;Signal;HPM_P1;HPM_P2
2023/02/03 00:00:41;;;;;;;7.43;2.97;;;;;;;6.35;100.00;102463.94;5053952;28;20032;-71
2023/02/03 00:03:07;;;;;;;5.63;2.30;;;;;;;6.32;100.00;102459.69;5055014;28;20033;-71
2023/02/03 00:05:32;;;;;;;7.00;2.30;;;;;;;6.34;100.00;102462.25;5037556;28;20041;-71
2023/02/03 00:07:58;;;;;;;5.25;2.38;;;;;;;6.34;100.00;102456.75;4999918;28;20052;-71
2023/02/03 00:10:23;;;;;;;4.93;2.50;;;;;;;6.33;100.00;102450.38;5017506;28;20022;-71
2023/02/03 00:12:49;;;;;;;6.68;2.58;;;;;;;6.34;100.00;102451.22;5022320;28;20028;-71
2023/02/03 00:15:15;;;;;;;5.72;2.40;;;;;;;6.34;100.00;102448.47;5031996;28;20082;-71
2023/02/03 00:17:40;;;;;;;4.03;2.05;;;;;;;6.33;100.00;102447.63;5004853;28;20037;-71
2023/02/03 00:20:06;;;;;;;4.95;2.13;;;;;;;6.34;100.00;102453.97;5033804;28;20407;-71
2023/02/03 00:22:32;;;;;;;6.55;2.28;;;;;;;6.33;100.00;102450.38;4987402;28;20060;-71
2023/02/03 00:24:57;;;;;;;5.43;2.00;;;;;;;6.34;100.00;102456.75;5027033;28;20025;-71
2023/02/03 00:27:23;;;;;;;4.03;2.17;;;;;;;6.34;100.00;102446.53;5004818;28;20105;-71
2023/02/03 00:29:48;;;;;;;3.97;1.88;;;;;;;6.29;100.00;102454.63;5023317;28;20033;-71
2023/02/03 00:32:14;;;;;;;6.00;2.10;;;;;;;6.32;100.00;102456.94;4997340;28;20048;-71
2023/02/03 00:34:39;;;;;;;3.80;1.80;;;;;;;6.33;100.00;102464.19;5026771;28;20029;-71
2023/02/03 00:37:05;;;;;;;4.65;2.08;;;;;;;6.33;100.00;102463.34;5037026;28;20036;-71
2023/02/03 00:39:30;;;;;;;3.47;1.77;;;;;;;6.31;100.00;102463.53;5010600;28;20049;-71
2023/02/03 00:41:56;;;;;;;6.15;2.20;;;;;;;6.30;100.00;102461.00;5016777;28;20122;-71
2023/02/03 00:44:21;;;;;;;2.75;1.88;;;;;;;6.31;100.00;102469.06;5019884;28;20029;-71
2023/02/03 00:46:47;;;;;;;5.88;2.35;;;;;;;6.31;100.00;102466.28;5033031;28;20025;-71
2023/02/03 00:49:12;;;;;;;8.23;1.98;;;;;;;6.31;100.00;102468.22;5000632;28;20028;-71
2023/02/03 00:51:38;;;;;;;6.75;1.90;;;;;;;6.32;100.00;102459.69;5014375;28;20789;-71
2023/02/03 00:54:03;;;;;;;3.45;1.77;;;;;;;6.31;100.00;102452.50;5016110;28;20037;-71
2023/02/03 00:56:29;;;;;;;4.95;1.88;;;;;;;6.32;100.00;102448.66;5020221;28;20080;-71
2023/02/03 00:58:54;;;;;;;2.70;1.90;;;;;;;6.31;100.00;102451.66;5004301;28;20032;-71
2023/02/03 01:01:20;;;;;;;4.65;2.35;;;;;;;6.31;100.00;102451.66;5005231;28;20056;-71
2023/02/03 01:03:45;;;;;;;3.90;1.70;;;;;;;6.28;100.00;102457.63;5004015;28;20033;-71
2023/02/03 01:06:14;;;;;;;5.03;1.88;;;;;;;6.25;100.00;102454.22;5015058;28;20064;-71
2023/02/03 01:08:40;;;;;;;4.45;2.08;;;;;;;6.28;100.00;102458.47;5028465;28;20029;-71
2023/02/03 01:11:07;;;;;;;3.88;1.70;;;;;;;6.27;100.00;102456.78;5013654;28;20087;-71
2023/02/03 01:13:33;;;;;;;3.70;1.90;;;;;;;6.26;100.00;102455.06;5031809;28;20064;-71
2023/02/03 01:15:58;;;;;;;5.70;1.83;;;;;;;6.27;100.00;102456.78;5018991;28;20029;-71
2023/02/03 01:18:23;;;;;;;4.65;1.70;;;;;;;6.26;100.00;102461.44;5023581;28;20033;-71
2023/02/03 01:20:49;;;;;;;3.25;1.90;;;;;;;6.25;100.00;102467.19;5023802;28;20381;-71
2023/02/03 01:23:14;;;;;;;6.60;2.50;;;;;;;6.24;100.00;102457.19;5003825;28;20032;-71
2023/02/03 01:25:40;;;;;;;5.10;2.20;;;;;;;6.25;100.00;102465.25;5015283;28;20034;-71
2023/02/03 01:28:05;;;;;;;3.75;1.67;;;;;;;6.25;100.00;102453.38;4996023;28;20052;-71
2023/02/03 01:30:31;;;;;;;4.43;2.10;;;;;;;6.26;100.00;102461.44;5008219;28;20026;-71
2023/02/03 01:32:56;;;;;;;6.50;2.20;;;;;;;6.26;100.00;102466.09;5023419;28;20026;-71
2023/02/03 01:35:22;;;;;;;3.75;1.85;;;;;;;6.26;100.00;102463.34;5003754;28;20025;-71
2023/02/03 01:37:47;;;;;;;3.45;1.80;;;;;;;6.24;100.00;102455.28;4987004;28;20033;-71
2023/02/03 01:40:13;;;;;;;7.13;2.05;;;;;;;6.26;100.00;102444.03;5025551;28;20049;-71
2023/02/03 01:42:38;;;;;;;2.55;1.60;;;;;;;6.24;100.00;102441.50;5056795;28;20040;-71
2023/02/03 01:45:04;;;;;;;4.25;1.90;;;;;;;6.24;100.00;102446.16;5009721;28;20033;-71
2023/02/03 01:47:45;;;;;;;3.20;1.60;;;;;;;6.23;100.00;102450.81;5035220;28;20033;-71
2023/02/03 01:50:12;;;;;;;3.42;1.58;;;;;;;6.25;100.00;102440.44;5020905;28;20440;-71
2023/02/03 01:52:39;;;;;;;5.75;1.73;;;;;;;6.24;100.00;102451.66;5029101;28;20025;-71
2023/02/03 01:55:06;;;;;;;3.38;1.70;;;;;;;6.23;100.00;102439.78;5026636;28;20108;-71
2023/02/03 01:57:41;;;;;;;3.30;1.98;;;;;;;6.23;100.00;102434.28;5013458;28;20131;-71
2023/02/03 02:00:09;;;;;;;2.60;1.70;;;;;;;6.23;100.00;102433.44;5019510;28;20034;-71
2023/02/03 02:02:34;;;;;;;5.07;1.92;;;;;;;6.23;100.00;102422.38;5011133;28;20112;-71
2023/02/03 02:05:13;;;;;;;3.55;1.40;;;;;;;6.22;100.00;102426.22;5024811;28;20091;-71
2023/02/03 02:07:40;;;;;;;3.60;1.60;;;;;;;6.22;100.00;102417.94;5025517;28;20073;-71
2023/02/03 02:10:05;;;;;;;2.40;1.63;;;;;;;6.22;100.00;102415.19;5026250;28;20037;-71
2023/02/03 02:12:31;;;;;;;2.47;1.48;;;;;;;6.22;100.00;102415.19;5022732;28;20037;-71
2023/02/03 02:14:56;;;;;;;3.17;1.67;;;;;;;6.21;100.00;102411.59;5037661;28;20039;-71
2023/02/03 02:17:40;;;;;;;4.05;1.52;;;;;;;6.19;100.00;102410.94;5003770;28;20037;-71
2023/02/03 02:20:19;;;;;;;3.35;1.50;;;;;;;6.19;100.00;102402.69;5029039;28;20090;-71
2023/02/03 02:23:09;;;;;;;4.30;1.50;;;;;;;6.21;100.00;102396.91;5037299;28;20033;-71
2023/02/03 02:25:54;;;;;;;3.95;1.77;;;;;;;6.18;100.00;102391.84;5055394;28;20110;-71
2023/02/03 02:28:39;;;;;;;3.30;1.45;;;;;;;6.16;100.00;102394.00;5027943;28;20390;-71
2023/02/03 02:31:29;;;;;;;2.80;1.17;;;;;;;6.16;100.00;102382.97;5056168;28;20117;-71
2023/02/03 02:34:04;;;;;;;3.47;1.30;;;;;;;6.16;100.00;102388.47;5018639;28;20048;-71
2023/02/03 02:36:32;;;;;;;2.22;1.50;;;;;;;6.13;100.00;102388.88;5018654;28;20060;-71
2023/02/03 02:39:08;;;;;;;3.60;1.90;;;;;;;6.15;100.00;102390.38;5006864;28;20046;-71
2023/02/03 02:41:39;;;;;;;3.28;1.40;;;;;;;6.15;100.00;102381.25;5049826;28;20464;-71
2023/02/03 02:44:17;;;;;;;2.80;1.50;;;;;;;6.14;100.00;102387.84;5055169;28;20039;-71
2023/02/03 02:46:48;;;;;;;4.55;1.30;;;;;;;6.11;100.00;102389.13;5009406;28;20041;-71
2023/02/03 02:49:14;;;;;;;1.73;1.20;;;;;;;6.12;100.00;102373.41;5007336;28;20017;-71
2023/02/03 02:51:42;;;;;;;4.10;1.60;;;;;;;6.11;100.00;102371.72;5032939;28;20093;-71
2023/02/03 02:54:09;;;;;;;4.00;1.63;;;;;;;6.09;100.00;102360.06;5019017;28;20367;-71
2023/02/03 02:56:35;;;;;;;2.83;1.38;;;;;;;6.11;100.00;102367.06;5006605;28;20090;-71
2023/02/03 02:59:01;;;;;;;2.97;1.67;;;;;;;6.11;100.00;102357.94;5018437;28;20521;-71
2023/02/03 03:01:27;;;;;;;3.63;1.30;;;;;;;6.12;100.00;102354.09;5018230;28;20025;-71
2023/02/03 03:03:52;;;;;;;3.25;1.38;;;;;;;6.10;100.00;102356.22;5007742;28;20033;-71
2023/02/03 03:06:27;;;;;;;2.67;1.70;;;;;;;6.09;100.00;102365.56;5034110;28;20029;-71
2023/02/03 03:08:58;;;;;;;4.28;1.48;;;;;;;6.08;100.00;102369.41;5001897;28;20049;-72
2023/02/03 03:11:30;;;;;;;3.65;1.10;;;;;;;6.07;100.00;102384.25;4987769;28;20033;-71
2023/02/03 03:13:55;;;;;;;2.92;1.48;;;;;;;6.03;100.00;102373.66;5046367;28;20025;-71
2023/02/03 03:16:23;;;;;;;3.10;1.45;;;;;;;6.04;100.00;102374.50;5001713;28;20519;-71
2023/02/03 03:18:50;;;;;;;4.22;1.45;;;;;;;6.06;100.00;102379.81;5019415;28;20033;-71
2023/02/03 03:21:20;;;;;;;1.77;1.15;;;;;;;6.00;100.00;102382.38;5056580;28;20033;-71
2023/02/03 03:23:46;;;;;;;3.55;1.50;;;;;;;5.98;100.00;102398.28;5030818;28;20036;-71
2023/02/03 03:26:15;;;;;;;5.35;1.30;;;;;;;6.00;100.00;102393.41;5002011;28;20099;-71
2023/02/03 03:28:49;;;;;;;2.25;1.27;;;;;;;5.99;100.00;102397.25;5028374;28;20113;-71
2023/02/03 03:31:18;;;;;;;2.15;1.25;;;;;;;5.98;100.00;102398.28;5025925;28;20032;-71
2023/02/03 03:33:43;;;;;;;2.97;1.17;;;;;;;5.99;100.00;102399.13;4992123;28;20503;-71
2023/02/03 03:36:18;;;;;;;2.92;1.35;;;;;;;5.98;100.00;102398.28;5017731;28;20025;-71
2023/02/03 03:38:48;;;;;;;4.03;1.20;;;;;;;5.99;100.00;102397.25;4990053;28;20518;-71
2023/02/03 03:41:21;;;;;;;2.50;1.63;;;;;;;5.97;100.00;102396.59;4995101;28;20037;-71
2023/02/03 03:43:47;;;;;;;2.53;1.13;;;;;;;5.97;100.00;102396.59;5023121;28;20045;-72
2023/02/03 03:46:20;;;;;;;3.47;1.40;;;;;;;5.95;100.00;102397.88;5007650;28;20493;-71
2023/02/03 03:48:46;;;;;;;2.17;1.13;;;;;;;5.97;100.00;102395.75;5001922;28;20026;-71
2023/02/03 03:51:43;;;;;;;2.13;1.10;;;;;;;5.97;100.00;102390.25;5045090;28;20397;-71
2023/02/03 03:54:10;;;;;;;2.45;1.13;;;;;;;5.95;100.00;102387.69;5031163;28;20040;-71
2023/02/03 03:56:57;;;;;;;2.20;1.23;;;;;;;5.95;100.00;102378.56;5035475;28;20099;-71
2023/02/03 03:59:23;;;;;;;1.50;0.90;;;;;;;5.95;100.00;102376.66;5047132;28;20063;-71
2023/02/03 04:01:48;;;;;;;3.83;1.40;;;;;;;5.95;100.00;102376.66;5018899;28;20374;-71
2023/02/03 04:04:14;;;;;;;2.15;1.02;;;;;;;5.93;100.00;102381.53;5017626;28;20029;-71
2023/02/03 04:06:40;;;;;;;4.07;1.65;;;;;;;5.95;100.00;102362.03;4984785;28;20033;-71
2023/02/03 04:09:05;;;;;;;2.20;1.30;;;;;;;5.95;100.00;102364.78;4985115;28;20036;-72
2023/02/03 04:12:16;;;;;;;4.10;1.40;;;;;;;5.95;100.00;102356.50;5047010;28;20029;-71
2023/02/03 04:14:17;;;;;;;3.35;1.40;;;;;;;5.94;100.00;102372.22;5034405;28;20086;-71
2023/02/03 04:16:42;;;;;;;2.33;1.10;;;;;;;5.97;100.00;102362.66;5027872;28;20033;-71
2023/02/03 04:19:07;;;;;;;1.92;1.20;;;;;;;5.95;100.00;102365.63;5009099;28;20107;-71
2023/02/03 04:21:33;;;;;;;2.88;1.27;;;;;;;5.95;100.00;102373.91;5022156;28;20085;-71
2023/02/03 04:23:58;;;;;;;2.90;1.50;;;;;;;5.95;100.00;102382.16;5017292;28;20037;-71
2023/02/03 04:26:24;;;;;;;2.47;1.20;;;;;;;5.95;100.00;102379.41;5002951;28;20026;-71
2023/02/03 04:28:49;;;;;;;2.40;1.20;;;;;;;5.95;100.00;102390.44;5004782;28;20067;-71
2023/02/03 04:31:15;;;;;;;1.80;1.10;;;;;;;5.95;100.00;102376.66;4988934;28;20076;-71
2023/02/03 04:33:41;;;;;;;4.82;1.30;;;;;;;5.94;100.00;102386.00;5037709;28;20029;-71
2023/02/03 04:36:06;;;;;;;4.38;1.25;;;;;;;5.96;100.00;102394.91;5004958;28;20087;-71
2023/02/03 04:38:32;;;;;;;4.25;1.30;;;;;;;5.96;100.00;102389.41;5014714;28;20069;-71
2023/02/03 04:40:58;;;;;;;4.15;1.17;;;;;;;5.97;100.00;102393.00;5045086;28;20594;-71
2023/02/03 04:43:23;;;;;;;4.22;1.30;;;;;;;5.95;100.00;102387.69;5041014;28;20048;-71
2023/02/03 04:45:49;;;;;;;3.42;1.27;;;;;;;5.95;100.00;102386.84;5014403;28;20088;-71
2023/02/03 04:48:14;;;;;;;2.65;1.60;;;;;;;5.95;100.00;102393.22;5020941;28;20482;-71
2023/02/03 04:50:40;;;;;;;1.40;1.30;;;;;;;5.94;100.00;102380.50;5040643;28;20100;-71
2023/02/03 04:53:05;;;;;;;3.42;1.65;;;;;;;5.92;100.00;102388.09;5042637;28;20032;-71
2023/02/03 04:55:30;;;;;;;1.92;1.00;;;;;;;5.94;100.00;102383.25;5037017;28;20087;-71
2023/02/03 04:57:57;;;;;;;3.05;1.40;;;;;;;5.95;100.00;102384.09;5033740;28;20040;-71
2023/02/03 05:00:22;;;;;;;3.03;1.40;;;;;;;5.95;100.00;102378.56;5005091;28;20040;-71
2023/02/03 05:02:47;;;;;;;2.50;1.30;;;;;;;5.94;100.00;102369.47;5014110;28;20394;-71
2023/02/03 05:05:13;;;;;;;2.72;1.40;;;;;;;5.95;100.00;102370.31;5011498;28;20033;-71
2023/02/03 05:07:38;;;;;;;3.58;1.50;;;;;;;5.96;100.00;102371.97;5036974;28;20040;-71
2023/02/03 05:10:04;;;;;;;3.58;1.33;;;;;;;5.95;100.00;102360.13;5020454;28;20037;-71
2023/02/03 05:12:30;;;;;;;3.28;1.33;;;;;;;5.95;100.00;102360.13;5012922;28;20029;-71
2023/02/03 05:14:55;;;;;;;3.33;1.15;;;;;;;5.95;100.00;102362.03;5036645;28;20029;-71
2023/02/03 05:17:20;;;;;;;3.65;1.75;;;;;;;5.94;100.00;102357.59;5004655;28;20474;-71
2023/02/03 05:19:46;;;;;;;4.05;1.60;;;;;;;5.96;100.00;102372.84;5007050;28;20025;-71
2023/02/03 05:22:11;;;;;;;2.15;1.60;;;;;;;5.95;100.00;102376.66;5010248;28;20419;-71
2023/02/03 05:24:37;;;;;;;3.25;1.80;;;;;;;5.95;100.00;102373.91;5043344;28;20086;-71
2023/02/03 05:27:02;;;;;;;2.08;1.27;;;;;;;5.95;100.00;102375.81;5023626;28;20485;-71
2023/02/03 05:29:28;;;;;;;4.88;1.73;;;;;;;5.94;100.00;102383.25;5022504;28;20036;-71
2023/02/03 05:31:53;;;;;;;3.72;1.40;;;;;;;5.93;100.00;102378.78;5036819;28;20049;-71
2023/02/03 05:34:19;;;;;;;3.65;1.38;;;;;;;5.91;100.00;102391.09;5019906;28;20025;-71
2023/02/03 05:36:44;;;;;;;2.15;1.42;;;;;;;5.90;100.00;102401.25;5019380;28;20051;-71
2023/02/03 05:39:10;;;;;;;3.17;1.40;;;;;;;5.90;100.00;102397.66;5007255;28;20505;-71
2023/02/03 05:41:53;;;;;;;4.10;1.40;;;;;;;5.91;100.00;102402.97;5003395;28;20041;-71
2023/02/03 05:44:20;;;;;;;3.40;1.50;;;;;;;5.92;100.00;102395.53;5036255;28;20025;-71
2023/02/03 05:46:46;;;;;;;3.53;1.20;;;;;;;5.89;100.00;102401.47;5022565;28;20022;-71
2023/02/03 05:49:12;;;;;;;3.95;1.35;;;;;;;5.91;100.00;102402.13;5020440;28;20028;-71
2023/02/03 05:51:38;;;;;;;3.17;1.30;;;;;;;5.90;100.00;102395.72;5017657;28;20025;-71
2023/02/03 05:54:04;;;;;;;2.55;1.10;;;;;;;5.90;100.00;102400.41;5011839;28;20056;-71
2023/02/03 05:56:29;;;;;;;2.92;1.42;;;;;;;5.90;100.00;102400.41;5003364;28;20662;-71
2023/02/03 05:58:55;;;;;;;3.05;1.40;;;;;;;5.91;100.00;102400.19;4987154;28;20021;-71
2023/02/03 06:01:20;;;;;;;2.95;1.30;;;;;;;5.90;100.00;102401.25;4988429;28;20037;-71
2023/02/03 06:03:46;;;;;;;2.55;1.20;;;;;;;5.89;100.00;102396.81;5054439;28;20040;-71
2023/02/03 06:06:12;;;;;;;3.55;1.17;;;;;;;5.88;100.00;102389.59;5034516;28;20078;-71
2023/02/03 06:08:37;;;;;;;3.00;1.10;;;;;;;5.89;100.00;102396.81;5057177;28;20025;-71
2023/02/03 06:11:02;;;;;;;1.77;1.20;;;;;;;5.89;100.00;102393.22;5007770;28;20037;-71
2023/02/03 06:13:28;;;;;;;3.72;1.42;;;;;;;5.89;100.00;102399.56;5011354;28;20167;-71
2023/02/03 06:15:54;;;;;;;2.90;1.40;;;;;;;5.89;100.00;102404.25;5016769;28;20033;-71
2023/02/03 06:18:19;;;;;;;2.50;1.42;;;;;;;5.89;100.00;102405.09;5025964;28;20037;-71
2023/02/03 06:20:45;;;;;;;3.40;1.33;;;;;;;5.88;100.00;102395.13;5001679;28;20079;-71
2023/02/03 06:23:10;;;;;;;3.88;1.30;;;;;;;5.89;100.00;102407.84;5002809;28;20029;-71
2023/02/03 06:25:36;;;;;;;1.95;1.17;;;;;;;5.88;100.00;102400.63;5030661;28;20099;-71
2023/02/03 06:28:01;;;;;;;3.90;1.33;;;;;;;5.89;100.00;102395.97;5002936;28;20029;-71
2023/02/03 06:30:26;;;;;;;2.05;1.30;;;;;;;5.88;100.00;102397.88;5033745;28;20037;-71
2023/02/03 06:32:52;;;;;;;2.55;1.50;;;;;;;5.89;100.00;102394.06;4992436;28;20652;-71
2023/02/03 06:35:17;;;;;;;4.30;1.33;;;;;;;5.89;100.00;102396.81;5030639;28;20034;-71
2023/02/03 06:37:43;;;;;;;3.10;1.20;;;;;;;5.90;100.00;102400.41;5034049;28;20030;-71
2023/02/03 06:40:11;;;;;;;3.22;1.23;;;;;;;5.90;100.00;102398.50;5019712;28;20042;-71
2023/02/03 06:42:37;;;;;;;4.28;1.60;;;;;;;5.89;100.00;102407.84;5034063;28;20040;-71
2023/02/03 06:45:03;;;;;;;4.35;1.60;;;;;;;5.89;100.00;102409.75;5008620;28;20021;-71
2023/02/03 06:47:28;;;;;;;4.63;1.50;;;;;;;5.90;100.00;102409.53;5017114;28;20032;-72
2023/02/03 06:49:54;;;;;;;2.67;1.30;;;;;;;5.90;100.00;102415.03;4986242;28;20517;-71
2023/02/03 06:52:19;;;;;;;2.10;1.42;;;;;;;5.90;100.00;102417.78;5022664;28;20018;-71
2023/02/03 06:54:45;;;;;;;2.67;1.42;;;;;;;5.91;100.00;102413.16;4991675;28;20030;-71
2023/02/03 06:57:10;;;;;;;2.25;1.30;;;;;;;5.91;100.00;102419.50;5025382;28;20038;-71
2023/02/03 06:59:36;;;;;;;2.70;1.52;;;;;;;5.91;100.00;102416.75;5038231;28;20029;-71
2023/02/03 07:02:01;;;;;;;4.05;1.30;;;;;;;5.91;100.00;102418.66;5003555;28;20065;-71
2023/02/03 07:04:28;;;;;;;2.20;1.30;;;;;;;5.91;100.00;102407.63;5015651;28;20033;-71
2023/02/03 07:06:55;;;;;;;4.45;1.42;;;;;;;5.92;100.00;102428.63;5002547;28;20060;-71
2023/02/03 07:09:20;;;;;;;2.38;1.30;;;;;;;5.91;100.00;102424.19;4985400;28;20545;-71
2023/02/03 07:11:46;;;;;;;4.05;1.50;;;;;;;5.91;100.00;102419.50;5036728;28;20036;-71
2023/02/03 07:14:11;;;;;;;3.63;1.55;;;;;;;5.92;100.00;102417.59;5007134;28;20402;-71
2023/02/03 07:16:37;;;;;;;3.08;1.40;;;;;;;5.90;100.00;102423.31;5034755;28;20067;-69
2023/02/03 07:19:03;;;;;;;2.45;1.30;;;;;;;5.92;100.00;102426.69;5021385;28;20044;-73
2023/02/03 07:21:28;;;;;;;3.42;1.40;;;;;;;5.92;100.00;102436.91;5006412;28;20108;-68
2023/02/03 07:23:54;;;;;;;3.80;1.50;;;;;;;5.90;100.00;102434.34;5037252;28;20116;-71
2023/02/03 07:26:21;;;;;;;4.20;1.45;;;;;;;5.92;100.00;102437.75;5053804;28;20021;-71
2023/02/03 07:28:47;;;;;;;2.53;1.30;;;;;;;5.90;100.00;102439.00;5023230;28;20029;-70
2023/02/03 07:31:12;;;;;;;3.58;1.40;;;;;;;5.92;100.00;102448.78;5001612;28;20048;-71
2023/02/03 07:33:38;;;;;;;2.75;1.15;;;;;;;5.93;100.00;102455.13;5013085;28;20029;-71
2023/02/03 07:36:04;;;;;;;2.67;1.15;;;;;;;5.91;100.00;102452.59;5009747;28;20032;-71
2023/02/03 07:38:30;;;;;;;5.32;1.55;;;;;;;5.91;100.00;102454.53;5035774;28;20077;-71
2023/02/03 07:40:56;;;;;;;4.00;1.58;;;;;;;5.88;100.00;102458.56;5042761;28;20036;-71
2023/02/03 07:43:21;;;;;;;2.75;1.50;;;;;;;5.88;100.00;102464.06;5005874;28;20045;-70
2023/02/03 07:45:47;;;;;;;3.85;1.60;;;;;;;5.91;100.00;102476.59;5014692;28;20060;-71
2023/02/03 07:48:12;;;;;;;2.97;1.58;;;;;;;5.92;100.00;102487.38;5024877;28;20030;-71
2023/02/03 07:50:38;;;;;;;3.42;1.90;;;;;;;5.93;100.00;102486.34;5053719;28;20040;-71
2023/02/03 07:53:04;;;;;;;3.97;1.70;;;;;;;5.94;100.00;102490.81;5034504;28;20436;-71
2023/02/03 07:55:29;;;;;;;4.65;1.65;;;;;;;5.93;100.00;102489.09;5016496;28;20401;-71
2023/02/03 07:57:55;;;;;;;3.85;1.83;;;;;;;5.94;100.00;102484.44;5020922;28;20033;-71
2023/02/03 08:00:21;;;;;;;3.08;1.80;;;;;;;5.95;100.00;102478.69;5003473;28;20029;-71
2023/02/03 08:02:47;;;;;;;4.38;1.70;;;;;;;5.95;100.00;102477.88;5030148;28;20094;-71
2023/02/03 08:05:12;;;;;;;3.67;1.92;;;;;;;5.96;100.00;102479.53;5004633;28;20040;-71
2023/02/03 08:07:38;;;;;;;3.67;1.73;;;;;;;5.96;100.00;102482.31;5001254;28;20060;-71
2023/02/03 08:10:06;;;;;;;3.78;1.45;;;;;;;5.96;100.00;102494.22;5020794;28;20033;-71
2023/02/03 08:12:31;;;;;;;3.70;1.85;;;;;;;5.96;100.00;102494.22;5023810;28;20018;-71
2023/02/03 08:14:57;;;;;;;4.57;1.80;;;;;;;5.93;100.00;102488.22;5007943;28;20086;-71
2023/02/03 08:17:22;;;;;;;5.07;2.00;;;;;;;5.96;100.00;102493.34;5035854;28;20036;-71
2023/02/03 08:19:48;;;;;;;2.92;1.65;;;;;;;5.95;100.00;102500.75;5017256;28;20040;-71
2023/02/03 08:22:15;;;;;;;2.45;1.70;;;;;;;5.96;100.00;102499.72;5007893;28;20083;-71
2023/02/03 08:24:47;;;;;;;3.80;1.85;;;;;;;5.97;100.00;102514.34;5037092;28;20043;-71
2023/02/03 08:27:13;;;;;;;3.30;1.65;;;;;;;6.00;100.00;102512.00;5036760;28;20025;-71
2023/02/03 08:29:39;;;;;;;3.10;1.75;;;;;;;6.02;100.00;102514.56;5004136;28;20389;-71
2023/02/03 08:32:04;;;;;;;3.10;2.00;;;;;;;6.04;100.00;102524.31;5017174;28;20021;-71
2023/02/03 08:34:32;;;;;;;3.45;1.77;;;;;;;6.09;100.00;102529.19;5000802;28;20038;-71
2023/02/03 08:36:58;;;;;;;2.88;1.60;;;;;;;6.10;100.00;102527.25;5048761;28;20478;-71
2023/02/03 08:39:24;;;;;;;4.50;1.83;;;;;;;6.13;100.00;102540.63;5027465;28;20076;-71
2023/02/03 08:41:49;;;;;;;3.55;1.67;;;;;;;6.16;100.00;102545.75;5037055;28;20094;-71
2023/02/03 08:44:17;;;;;;;3.72;1.67;;;;;;;6.21;100.00;102537.63;5012244;28;20033;-71
2023/02/03 08:46:43;;;;;;;2.40;1.40;;;;;;;6.23;100.00;102538.28;5001419;28;20120;-71
2023/02/03 08:49:09;;;;;;;3.33;1.60;;;;;;;6.27;100.00;102545.06;4991978;28;20033;-71
2023/02/03 08:51:34;;;;;;;3.90;1.63;;;;;;;6.33;100.00;102548.88;5031369;28;20030;-71
2023/02/03 08:54:00;;;;;;;2.90;1.80;;;;;;;6.36;100.00;102540.16;5048683;28;20033;-71
2023/02/03 08:56:26;;;;;;;3.58;1.77;;;;;;;6.41;100.00;102545.91;5000621;28;20116;-71
2023/02/03 08:58:52;;;;;;;3.95;1.83;;;;;;;6.45;100.00;102542.47;5033562;28;20030;-71
2023/02/03 09:01:17;;;;;;;2.17;1.67;;;;;;;6.51;100.00;102545.44;4998595;28;20079;-71
2023/02/03 09:03:43;;;;;;;2.72;1.67;;;;;;;6.55;100.00;102550.31;5047999;28;20033;-71
2023/02/03 09:06:10;;;;;;;4.85;2.17;;;;;;;6.61;100.00;102548.59;5000525;28;20029;-71
2023/02/03 09:08:36;;;;;;;2.35;1.92;;;;;;;6.68;100.00;102547.47;5006048;28;20030;-71
2023/02/03 09:11:01;;;;;;;3.72;1.92;;;;;;;6.76;100.00;102553.81;5031529;28;20112;-71
2023/02/03 09:13:27;;;;;;;5.10;1.90;;;;;;;6.81;100.00;102552.09;5023747;28;20028;-71
2023/02/03 09:15:52;;;;;;;4.07;1.95;;;;;;;6.86;100.00;102548.69;5008693;28;20504;-71
2023/02/03 09:18:18;;;;;;;3.10;1.70;;;;;;;6.91;100.00;102551.66;5022077;28;20029;-71
2023/02/03 09:20:43;;;;;;;5.97;1.90;;;;;;;6.96;100.00;102549.06;5023137;28;20029;-71
2023/02/03 09:23:09;;;;;;;4.72;1.90;;;;;;;7.03;100.00;102540.75;5062021;28;20533;-71
2023/02/03 09:25:34;;;;;;;3.28;1.52;;;;;;;7.07;100.00;102544.75;5012048;28;20032;-71
2023/02/03 09:28:03;;;;;;;4.68;1.92;;;;;;;7.14;100.00;102557.47;5003877;28;20646;-71
2023/02/03 09:30:28;;;;;;;3.03;1.70;;;;;;;7.21;100.00;102557.41;5020031;28;20033;-71
2023/02/03 09:32:55;;;;;;;4.93;1.85;;;;;;;7.27;100.00;102552.91;5012246;28;20029;-71
2023/02/03 09:35:21;;;;;;;2.65;1.65;;;;;;;7.33;100.00;102555.66;5023721;28;20029;-71
2023/02/03 09:37:47;;;;;;;4.43;1.73;;;;;;;7.39;100.00;102549.22;5007119;28;20532;-71
2023/02/03 09:40:19;;;;;;;2.72;1.50;;;;;;;7.46;100.00;102553.88;5016842;28;20060;-71
2023/02/03 09:43:13;;;;;;;2.95;1.48;;;;;;;7.54;100.00;102551.66;5029634;28;20099;-71
2023/02/03 09:45:38;;;;;;;2.83;1.70;;;;;;;7.63;100.00;102563.31;5035015;28;20057;-71
2023/02/03 09:48:25;;;;;;;8.02;2.28;;;;;;;7.71;100.00;102567.72;5038396;28;20546;-71
2023/02/03 09:50:50;;;;;;;2.83;1.63;;;;;;;7.78;100.00;102563.84;5020735;28;20033;-71
2023/02/03 09:53:34;;;;;;;3.45;1.90;;;;;;;7.86;100.00;102561.88;5018849;28;20025;-71
2023/02/03 09:55:59;;;;;;;4.32;1.45;;;;;;;7.95;100.00;102554.97;5003454;28;20057;-71
2023/02/03 09:58:26;;;;;;;3.45;1.60;;;;;;;8.03;100.00;102555.53;5026234;28;20083;-72
2023/02/03 10:01:05;;;;;;;3.67;1.52;;;;;;;8.12;100.00;102558.84;5013265;28;20030;-71
2023/02/03 10:03:43;;;;;;;2.30;1.65;;;;;;;8.23;100.00;102565.56;5019518;28;20033;-71
2023/02/03 10:06:37;;;;;;;3.63;1.40;;;;;;;8.33;100.00;102565.00;5036926;28;20116;-72
2023/02/03 10:09:23;;;;;;;3.03;1.40;;;;;;;8.44;100.00;102553.22;5055352;28;20069;-72
2023/02/03 10:11:55;;;;;;;3.90;1.65;;;;;;;8.53;100.00;102551.84;5032800;28;20067;-71
2023/02/03 10:14:45;;;;;;;4.28;1.85;;;;;;;8.63;100.00;102563.22;5050738;28;20447;-72
2023/02/03 10:17:37;;;;;;;5.20;1.50;;;;;;;8.75;100.00;102565.22;5028177;28;20055;-72
2023/02/03 10:20:13;;;;;;;3.70;1.70;;;;;;;8.84;100.00;102561.06;5045661;28;20072;-71
2023/02/03 10:22:50;;;;;;;2.67;1.48;;;;;;;8.93;100.00;102567.97;5016080;28;20030;-71
2023/02/03 10:25:23;;;;;;;3.17;1.60;;;;;;;9.00;100.00;102568.75;4986358;28;20025;-71
2023/02/03 10:27:51;;;;;;;5.75;2.00;;;;;;;9.10;100.00;102574.56;5003273;28;20022;-71
2023/02/03 10:30:27;;;;;;;4.97;2.10;;;;;;;9.18;100.00;102568.69;5019166;28;20029;-71
2023/02/03 10:33:01;;;;;;;3.65;1.67;;;;;;;9.28;100.00;102572.84;5023753;28;20026;-71
2023/02/03 10:35:36;;;;;;;3.75;1.70;;;;;;;9.37;100.00;102577.81;5034836;28;20031;-71
2023/02/03 10:38:02;;;;;;;3.97;1.63;;;;;;;9.45;100.00;102571.09;5034580;28;20071;-71
2023/02/03 10:40:27;;;;;;;2.83;1.70;;;;;;;9.53;100.00;102578.25;5038441;28;20056;-71
2023/02/03 10:45:37;;;;;;;3.30;2.10;;;;;;;9.68;100.00;102581.41;5030435;28;20017;-71
2023/02/03 10:48:03;;;;;;;5.85;1.90;;;;;;;9.72;100.00;102581.75;5010666;28;20116;-71
2023/02/03 10:50:31;;;;;;;16.30;3.00;;;;;;;9.78;100.00;102583.63;5033580;28;20052;-71
2023/02/03 10:53:20;;;;;;;12.00;2.80;;;;;;;9.82;100.00;102582.03;5026942;28;20051;-71
2023/02/03 10:55:50;;;;;;;8.02;2.42;;;;;;;9.85;100.00;102578.78;5023393;28;20033;-71
2023/02/03 10:58:18;;;;;;;6.72;2.75;;;;;;;9.89;100.00;102571.69;5014389;28;20486;-71
2023/02/03 11:00:44;;;;;;;6.50;2.70;;;;;;;9.92;100.00;102571.22;5002267;28;20025;-71
2023/02/03 11:03:09;;;;;;;6.43;2.17;;;;;;;9.93;100.00;102575.66;5021446;28;20068;-71
2023/02/03 11:05:35;;;;;;;6.78;2.90;;;;;;;9.94;100.00;102570.94;5047123;28;20041;-71
2023/02/03 11:08:00;;;;;;;8.40;2.53;;;;;;;9.95;100.00;102562.41;5037936;28;20028;-72
2023/02/03 11:10:26;;;;;;;5.97;1.92;;;;;;;9.97;100.00;102565.78;4995752;28;20026;-71
2023/02/03 11:12:51;;;;;;;4.80;2.45;;;;;;;9.97;100.00;102564.91;5051720;28;20083;-71
2023/02/03 11:15:17;;;;;;;4.55;2.42;;;;;;;10.01;100.00;102561.44;5002007;28;20501;-71
2023/02/03 11:17:42;;;;;;;5.70;2.20;;;;;;;10.06;100.00;102563.50;4989036;28;20036;-72
2023/02/03 11:20:13;;;;;;;4.45;1.92;;;;;;;10.13;100.00;102566.13;5021303;28;20035;-71
2023/02/03 11:22:39;;;;;;;3.42;1.88;;;;;;;10.18;100.00;102567.09;5001525;28;20022;-72
2023/02/03 11:25:14;;;;;;;3.00;1.90;;;;;;;10.28;100.00;102552.66;5025382;28;20536;-72
2023/02/03 11:27:40;;;;;;;2.97;1.70;;;;;;;10.40;100.00;102560.97;5019540;28;20041;-72
2023/02/03 11:30:08;;;;;;;2.65;1.83;;;;;;;10.50;100.00;102555.63;5030228;28;20039;-72